Time;durP1;ratioP1;P1;durP2;ratioP2;P2;SDS_P1;SDS_P2;PMS_P1;PMS_P2;Temp;Humidity;BMP_temperature;BMP_pressure;BME280_temperature;BME280_humidity;BME280_pressure;Samples;Min_cycle;Max_cycle;Signal;HPM_P1;HPM_P2
2022/10/01 00:00:48;;;;;;;8.35;3.40;;;;;;;9.52;97.42;100787.56;5074152;28;20024;-71
2022/10/01 00:03:15;;;;;;;6.10;3.00;;;;;;;9.53;97.44;100785.75;5073757;28;20378;-73
2022/10/01 00:05:42;;;;;;;6.13;3.13;;;;;;;9.57;97.53;100779.16;5074095;28;20056;-73
2022/10/01 00:08:08;;;;;;;7.00;4.10;;;;;;;9.57;96.99;100771.13;5075225;28;20040;-73
2022/10/01 00:10:39;;;;;;;6.00;2.97;;;;;;;9.56;97.15;100769.41;5075381;28;20362;-71
2022/10/01 00:13:05;;;;;;;6.97;3.10;;;;;;;9.59;97.29;100763.84;5075165;28;20040;-73
2022/10/01 00:15:31;;;;;;;9.80;2.63;;;;;;;9.63;96.39;100759.94;5074128;28;20033;-73
2022/10/01 00:17:57;;;;;;;5.43;2.88;;;;;;;9.52;95.85;100767.94;5075854;28;20036;-72
2022/10/01 00:20:23;;;;;;;6.88;3.13;;;;;;;9.49;96.20;100765.50;5075101;28;20469;-72
2022/10/01 00:22:50;;;;;;;6.13;3.67;;;;;;;9.49;96.19;100768.16;5075345;28;20036;-73
2022/10/01 00:25:15;;;;;;;5.07;3.15;;;;;;;9.55;95.92;100751.59;5073611;28;20478;-73
2022/10/01 00:27:45;;;;;;;3.95;2.13;;;;;;;9.61;95.21;100759.19;5082301;28;20028;-73
2022/10/01 00:30:11;;;;;;;4.75;2.50;;;;;;;9.65;94.48;100763.34;5089299;28;20020;-73
2022/10/01 00:32:40;;;;;;;5.03;2.67;;;;;;;9.63;94.74;100759.94;5084704;28;20044;-73
2022/10/01 00:35:08;;;;;;;5.40;2.50;;;;;;;9.64;93.46;100751.75;5075076;28;20645;-75
2022/10/01 00:37:35;;;;;;;4.70;2.50;;;;;;;9.74;92.99;100762.66;5074050;28;20112;-73
2022/10/01 00:40:01;;;;;;;4.35;2.60;;;;;;;9.73;92.77;100750.19;5073965;28;20031;-74
2022/10/01 00:42:27;;;;;;;5.00;2.33;;;;;;;9.71;91.99;100748.59;5078563;28;20036;-72
2022/10/01 00:44:52;;;;;;;4.10;2.60;;;;;;;9.61;92.78;100741.25;5073663;28;20090;-72
2022/10/01 00:47:25;;;;;;;4.85;2.42;;;;;;;9.62;92.88;100742.13;5074726;28;20024;-74
2022/10/01 00:50:15;;;;;;;4.80;2.13;;;;;;;9.69;91.85;100742.50;5073561;28;20075;-72
2022/10/01 00:52:44;;;;;;;3.22;2.25;;;;;;;9.72;92.45;100742.25;5079087;28;20647;-73
2022/10/01 00:55:18;;;;;;;5.00;2.63;;;;;;;9.72;92.27;100745.78;5096828;28;20047;-74
2022/10/01 00:57:44;;;;;;;5.28;2.72;;;;;;;9.63;92.35;100738.47;5115254;28;20039;-73
2022/10/01 01:00:12;;;;;;;6.07;3.30;;;;;;;9.68;92.19;100741.63;5115778;28;20031;-75
2022/10/01 01:02:38;;;;;;;4.80;2.60;;;;;;;9.57;92.36;100742.47;5115835;28;20053;-73
2022/10/01 01:05:05;;;;;;;5.13;2.65;;;;;;;9.54;92.46;100736.47;5115268;28;20118;-74
2022/10/01 01:07:32;;;;;;;9.43;3.13;;;;;;;9.53;93.21;100732.06;5097880;28;20122;-73
2022/10/01 01:09:59;;;;;;;4.82;3.35;;;;;;;9.51;93.31;100740.25;5097120;28;20036;-72
2022/10/01 01:12:46;;;;;;;5.45;2.92;;;;;;;9.48;93.40;100724.38;5096716;28;20035;-74
2022/10/01 01:15:31;;;;;;;7.88;3.63;;;;;;;9.52;93.72;100725.84;5096181;28;20046;-74
2022/10/01 01:18:03;;;;;;;7.22;3.50;;;;;;;9.51;93.94;100728.66;5114982;28;20039;-72
2022/10/01 01:20:48;;;;;;;4.55;2.88;;;;;;;9.54;93.91;100723.91;5096095;28;20023;-73
2022/10/01 01:23:14;;;;;;;4.30;3.83;;;;;;;9.51;94.35;100712.53;5096022;28;20526;-72
2022/10/01 01:26:15;;;;;;;7.18;4.30;;;;;;;9.55;94.04;100720.25;5096188;28;20028;-73
2022/10/01 01:28:50;;;;;;;6.18;3.83;;;;;;;9.56;93.93;100715.72;5096327;28;20028;-72
2022/10/01 01:31:25;;;;;;;6.13;3.25;;;;;;;9.52;94.08;100703.53;5095921;28;20088;-72
2022/10/01 01:33:54;;;;;;;4.78;3.60;;;;;;;9.56;93.84;100705.84;5096062;28;20035;-72
2022/10/01 01:36:28;;;;;;;5.18;3.80;;;;;;;9.50;94.31;100705.47;5095923;28;20165;-72
2022/10/01 01:39:03;;;;;;;9.93;4.60;;;;;;;9.46;94.67;100693.28;5114632;28;20031;-72
2022/10/01 01:41:33;;;;;;;4.57;4.18;;;;;;;9.45;94.94;100691.56;5095913;28;20040;-74
2022/10/01 01:44:05;;;;;;;5.57;3.42;;;;;;;9.46;94.86;100694.13;5114500;28;20036;-72
2022/10/01 01:46:35;;;;;;;4.10;3.55;;;;;;;9.45;94.81;100687.03;5096142;28;20024;-71
2022/10/01 01:49:04;;;;;;;6.00;3.95;;;;;;;9.30;95.16;100686.38;5113801;28;20536;-71
2022/10/01 01:51:44;;;;;;;8.88;5.32;;;;;;;9.14;96.10;100693.88;5096243;28;20955;-73
2022/10/01 01:54:11;;;;;;;4.97;4.10;;;;;;;9.26;95.95;100687.59;5077715;28;20048;-71
2022/10/01 01:56:37;;;;;;;5.82;4.45;;;;;;;9.29;95.69;100679.31;5073306;28;20029;-72
2022/10/01 01:59:02;;;;;;;5.85;3.47;;;;;;;9.34;96.22;100690.53;5071781;28;20119;-72
2022/10/01 02:01:40;;;;;;;6.20;4.40;;;;;;;9.30;95.88;100682.84;5073745;28;20028;-72
2022/10/01 02:04:09;;;;;;;6.82;5.43;;;;;;;9.21;96.33;100692.44;5072018;28;20032;-73
2022/10/01 02:06:39;;;;;;;7.65;4.90;;;;;;;9.20;96.77;100687.19;5071999;28;20033;-71
2022/10/01 02:09:28;;;;;;;6.70;4.60;;;;;;;9.16;97.13;100685.72;5073104;28;20033;-72
2022/10/01 02:12:12;;;;;;;10.48;5.15;;;;;;;9.13;97.39;100681.44;5073444;28;20029;-72
2022/10/01 02:14:53;;;;;;;11.00;5.82;;;;;;;9.05;97.34;100678.47;5071668;28;20077;-71
2022/10/01 02:17:30;;;;;;;9.25;4.68;;;;;;;9.11;98.31;100675.34;5071447;28;20064;-72
2022/10/01 02:20:14;;;;;;;9.00;4.38;;;;;;;9.24;97.65;100673.44;5071643;28;20056;-73
2022/10/01 02:22:52;;;;;;;9.55;5.40;;;;;;;9.15;97.50;100668.75;5073002;28;20052;-73
2022/10/01 02:25:25;;;;;;;10.40;4.60;;;;;;;9.14;98.09;100668.88;5071287;28;20036;-73
2022/10/01 02:28:02;;;;;;;6.55;5.28;;;;;;;9.24;97.17;100668.06;5072802;28;20056;-72
2022/10/01 02:30:30;;;;;;;6.72;3.88;;;;;;;9.33;97.13;100661.13;5072683;28;20036;-72
2022/10/01 02:32:59;;;;;;;7.50;4.45;;;;;;;9.31;96.77;100668.44;5071376;28;20090;-71
2022/10/01 02:35:29;;;;;;;7.82;4.00;;;;;;;9.33;97.24;100659.31;5071457;28;20405;-72
2022/10/01 02:37:58;;;;;;;5.35;3.85;;;;;;;9.32;96.63;100657.59;5071348;28;20090;-72
2022/10/01 02:40:27;;;;;;;5.68;4.22;;;;;;;9.30;96.60;100662.25;5071612;28;20037;-72
2022/10/01 02:42:57;;;;;;;8.70;5.22;;;;;;;9.27;96.57;100656.25;5072500;28;20513;-72
2022/10/01 02:45:25;;;;;;;6.18;4.15;;;;;;;9.23;96.96;100665.47;5073150;28;20403;-71
2022/10/01 02:48:18;;;;;;;5.50;3.70;;;;;;;9.38;96.46;100660.78;5072637;28;20028;-73
2022/10/01 02:50:54;;;;;;;7.18;3.28;;;;;;;9.41;96.08;100657.88;5067478;28;20040;-72
2022/10/01 02:53:31;;;;;;;4.63;2.50;;;;;;;9.45;95.24;100657.53;5070764;28;20577;-74
2022/10/01 02:55:58;;;;;;;3.20;2.20;;;;;;;9.47;95.28;100662.78;5072871;28;20032;-73
2022/10/01 02:58:24;;;;;;;3.53;1.63;;;;;;;9.47;94.77;100652.03;5072521;28;20037;-71
2022/10/01 03:00:50;;;;;;;5.63;2.42;;;;;;;9.44;94.12;100647.78;5072126;28;20419;-73
2022/10/01 03:03:15;;;;;;;1.23;1.13;;;;;;;9.52;93.66;100652.53;5070641;28;21045;-73
2022/10/01 03:05:41;;;;;;;2.65;2.03;;;;;;;9.49;93.39;100650.94;5072519;28;20574;-73
2022/10/01 03:08:06;;;;;;;6.10;2.30;;;;;;;9.41;94.14;100652.53;5071258;28;20029;-73
2022/10/01 03:10:33;;;;;;;4.75;2.20;;;;;;;9.42;94.36;100651.53;5070985;28;20036;-71
2022/10/01 03:13:00;;;;;;;4.00;1.95;;;;;;;9.43;93.82;100650.56;5072183;28;20036;-74
2022/10/01 03:15:26;;;;;;;4.28;2.72;;;;;;;9.38;94.24;100642.00;5072160;28;20035;-72
2022/10/01 03:17:53;;;;;;;5.80;2.20;;;;;;;9.37;94.15;100645.66;5071984;28;20548;-73
2022/10/01 03:20:19;;;;;;;5.32;2.13;;;;;;;9.35;94.16;100635.91;5070664;28;20033;-71
2022/10/01 03:22:45;;;;;;;2.25;1.75;;;;;;;9.39;93.85;100639.19;5071945;28;20027;-71
2022/10/01 03:25:11;;;;;;;6.60;1.83;;;;;;;9.40;93.81;100637.38;5070862;28;20470;-72
2022/10/01 03:27:37;;;;;;;5.05;2.00;;;;;;;9.37;93.80;100642.97;5071055;28;20081;-73
2022/10/01 03:30:04;;;;;;;3.15;2.05;;;;;;;9.32;94.36;100640.66;5072424;28;20032;-72
2022/10/01 03:32:31;;;;;;;4.80;2.50;;;;;;;9.32;94.00;100637.97;5070874;28;20046;-72
2022/10/01 03:34:57;;;;;;;3.15;1.92;;;;;;;9.32;94.11;100638.81;5070397;28;20128;-72
2022/10/01 03:37:23;;;;;;;3.60;1.90;;;;;;;9.27;93.96;100646.38;5070756;28;20064;-72
2022/10/01 03:39:49;;;;;;;7.97;2.90;;;;;;;9.29;94.22;100639.06;5071810;28;20025;-71
2022/10/01 03:42:15;;;;;;;3.05;2.30;;;;;;;9.35;94.28;100638.59;5072437;28;20086;-73
2022/10/01 03:44:42;;;;;;;9.90;2.47;;;;;;;9.38;93.51;100642.84;5070798;28;20063;-73
2022/10/01 03:47:09;;;;;;;3.65;2.30;;;;;;;9.38;93.88;100636.63;5070255;28;20370;-73
2022/10/01 03:49:35;;;;;;;2.92;2.25;;;;;;;9.25;93.54;100637.59;5071653;28;20029;-73
2022/10/01 03:52:01;;;;;;;3.88;2.65;;;;;;;9.13;94.29;100635.84;5072028;28;20430;-72
2022/10/01 03:54:30;;;;;;;2.65;2.15;;;;;;;9.24;94.49;100635.88;5070492;28;20045;-73
2022/10/01 03:56:56;;;;;;;8.07;3.22;;;;;;;9.20;94.75;100645.13;5070684;28;20405;-72
2022/10/01 03:59:22;;;;;;;4.03;2.42;;;;;;;9.20;94.76;100644.25;5070715;28;20111;-71
2022/10/01 04:01:48;;;;;;;3.38;2.25;;;;;;;9.20;94.74;100634.38;5072001;28;20365;-73
2022/10/01 04:04:13;;;;;;;6.85;3.03;;;;;;;9.09;94.47;100639.72;5070246;28;20074;-73
2022/10/01 04:06:40;;;;;;;5.65;2.47;;;;;;;9.17;95.10;100648.03;5070606;28;20024;-72
2022/10/01 04:09:08;;;;;;;3.60;2.50;;;;;;;9.13;94.78;100649.25;5071282;28;20516;-74
2022/10/01 04:11:34;;;;;;;4.53;2.45;;;;;;;9.18;94.38;100647.06;5071782;28;20024;-73
2022/10/01 04:14:00;;;;;;;6.65;3.13;;;;;;;9.16;94.76;100642.78;5073272;28;20473;-73
2022/10/01 04:16:25;;;;;;;5.75;2.88;;;;;;;9.08;94.68;100639.84;5073982;28;20029;-73
2022/10/01 04:18:51;;;;;;;9.27;4.38;;;;;;;8.79;95.53;100640.22;5073689;28;20033;-73
2022/10/01 04:21:17;;;;;;;5.72;4.10;;;;;;;8.67;95.78;100647.31;5073761;28;20093;-73
2022/10/01 04:23:45;;;;;;;6.05;3.55;;;;;;;8.89;96.64;100643.03;5075443;28;20500;-72
2022/10/01 04:26:10;;;;;;;6.38;3.30;;;;;;;8.99;95.81;100642.25;5073862;28;20079;-72
2022/10/01 04:28:36;;;;;;;5.68;4.07;;;;;;;8.89;95.82;100640.34;5074875;28;20048;-73
2022/10/01 04:33:46;;;;;;;9.10;5.00;;;;;;;8.66;96.94;100645.63;5075176;28;20035;-72
2022/10/01 04:36:11;;;;;;;9.10;4.68;;;;;;;8.60;97.16;100648.75;5073707;28;20065;-72
2022/10/01 04:38:37;;;;;;;7.30;5.07;;;;;;;8.55;97.43;100647.38;5074835;28;20028;-72
2022/10/01 04:41:02;;;;;;;8.45;5.75;;;;;;;8.43;98.09;100639.28;5074684;28;20380;-73
2022/10/01 04:43:28;;;;;;;8.52;5.40;;;;;;;8.44;98.14;100648.16;5075091;28;20029;-72
2022/10/01 04:45:54;;;;;;;6.85;5.20;;;;;;;8.37;98.31;100636.16;5075088;28;20036;-73
2022/10/01 04:48:20;;;;;;;9.38;5.25;;;;;;;8.36;98.70;100627.28;5074774;28;20468;-72
2022/10/01 04:50:46;;;;;;;6.45;4.93;;;;;;;8.38;99.29;100629.84;5075275;28;20028;-72
2022/10/01 04:53:11;;;;;;;6.15;5.32;;;;;;;8.41;99.32;100635.00;5087222;28;20071;-73
2022/10/01 04:55:37;;;;;;;9.50;5.63;;;;;;;8.43;99.22;100643.78;5097427;28;20525;-71
2022/10/01 04:58:02;;;;;;;9.85;5.10;;;;;;;8.38;99.16;100640.56;5096873;28;20038;-70
2022/10/01 05:00:28;;;;;;;10.63;6.28;;;;;;;8.36;99.51;100642.50;5096762;28;20026;-72
2022/10/01 05:02:55;;;;;;;7.85;4.40;;;;;;;8.62;99.66;100644.13;5114914;28;20032;-72
2022/10/01 05:05:23;;;;;;;7.00;4.35;;;;;;;8.94;99.11;100632.84;5114819;28;20027;-72
2022/10/01 05:07:49;;;;;;;4.25;3.85;;;;;;;9.12;98.60;100641.31;5096762;28;20555;-72
2022/10/01 05:10:18;;;;;;;4.15;3.75;;;;;;;9.26;98.24;100638.44;5096473;28;20472;-72
2022/10/01 05:12:47;;;;;;;6.07;4.50;;;;;;;9.35;97.85;100640.41;5114905;28;20115;-72
2022/10/01 05:15:15;;;;;;;5.05;3.88;;;;;;;9.44;96.98;100636.19;5096388;28;20088;-71
2022/10/01 05:17:41;;;;;;;8.23;3.33;;;;;;;9.52;96.02;100637.28;5096383;28;20023;-70
2022/10/01 05:20:10;;;;;;;5.95;3.50;;;;;;;9.58;95.92;100638.66;5096526;28;20027;-71
2022/10/01 05:22:36;;;;;;;4.38;3.25;;;;;;;9.64;95.53;100635.47;5114678;28;20027;-72
2022/10/01 05:25:03;;;;;;;6.15;3.35;;;;;;;9.74;95.04;100644.53;5113656;28;20110;-70
2022/10/01 05:27:36;;;;;;;9.35;4.07;;;;;;;9.76;95.11;100642.59;5096143;28;20318;-71
2022/10/01 05:30:07;;;;;;;5.63;4.18;;;;;;;9.81;95.27;100640.38;5096276;28;20043;-72
2022/10/01 05:32:33;;;;;;;3.03;2.50;;;;;;;9.90;94.47;100639.63;5096234;28;20088;-74
2022/10/01 05:34:59;;;;;;;8.07;2.50;;;;;;;9.99;93.57;100637.22;5114283;28;20028;-73
2022/10/01 05:37:25;;;;;;;5.57;2.63;;;;;;;10.02;93.27;100642.34;5095905;28;20028;-73
2022/10/01 05:39:50;;;;;;;3.55;2.38;;;;;;;10.05;93.11;100642.09;5114692;28;20027;-73
2022/10/01 05:42:16;;;;;;;5.97;3.05;;;;;;;10.01;93.11;100646.84;5095895;28;20086;-75
2022/10/01 05:44:45;;;;;;;10.23;3.20;;;;;;;10.05;92.91;100647.47;5114706;28;20493;-73
2022/10/01 05:47:13;;;;;;;4.70;2.70;;;;;;;10.04;92.88;100648.44;5114241;28;20034;-74
2022/10/01 05:49:43;;;;;;;5.88;3.67;;;;;;;10.01;92.77;100646.00;5114122;28;20028;-72
2022/10/01 05:52:14;;;;;;;6.78;3.17;;;;;;;10.03;92.42;100638.66;5114051;28;20039;-70
2022/10/01 05:54:40;;;;;;;3.58;2.70;;;;;;;10.05;92.25;100636.72;5114364;28;20489;-71
2022/10/01 05:57:07;;;;;;;4.47;2.88;;;;;;;10.11;92.31;100637.09;5114004;28;20031;-73
2022/10/01 05:59:33;;;;;;;4.20;3.13;;;;;;;10.15;92.52;100633.19;5114035;28;20055;-72
2022/10/01 06:01:59;;;;;;;4.75;2.53;;;;;;;10.18;92.41;100622.19;5113938;28;20031;-73
2022/10/01 06:04:25;;;;;;;3.38;2.92;;;;;;;10.23;92.25;100636.13;5095714;28;20403;-72
2022/10/01 06:06:52;;;;;;;3.35;2.60;;;;;;;10.22;92.25;100633.56;5095355;28;20032;-71
2022/10/01 06:09:19;;;;;;;3.47;2.67;;;;;;;10.24;91.80;100636.97;5095109;28;20114;-72
2022/10/01 06:11:47;;;;;;;3.95;2.67;;;;;;;10.28;91.91;100633.09;5095566;28;20126;-73
2022/10/01 06:14:13;;;;;;;6.30;3.00;;;;;;;10.37;91.62;100637.69;5095431;28;20035;-72
2022/10/01 06:16:39;;;;;;;4.07;2.70;;;;;;;10.44;90.61;100632.69;5113478;28;20042;-73
2022/10/01 06:19:04;;;;;;;5.85;3.05;;;;;;;10.49;90.50;100622.41;5095103;28;20055;-73
2022/10/01 06:21:30;;;;;;;4.22;2.50;;;;;;;10.57;90.59;100621.78;5095204;28;20399;-73
2022/10/01 06:23:56;;;;;;;5.88;3.75;;;;;;;10.55;90.18;100620.06;5095011;28;20040;-72
2022/10/01 06:26:22;;;;;;;5.55;3.95;;;;;;;10.38;92.16;100623.28;5095047;28;20024;-72
2022/10/01 06:28:49;;;;;;;6.00;3.38;;;;;;;10.29;93.21;100618.66;5094891;28;20031;-72
2022/10/01 06:31:15;;;;;;;5.07;4.28;;;;;;;10.44;93.29;100624.63;5112771;28;20027;-71
2022/10/01 06:33:40;;;;;;;3.10;2.80;;;;;;;10.67;92.53;100614.66;5094798;28;20039;-71
2022/10/01 06:36:06;;;;;;;5.13;2.72;;;;;;;10.85;91.36;100615.81;5094788;28;20032;-72
2022/10/01 06:38:32;;;;;;;4.50;3.08;;;;;;;10.95;90.99;100606.03;5094615;28;20357;-72
2022/10/01 06:40:59;;;;;;;4.97;3.17;;;;;;;10.95;90.97;100616.78;5094894;28;20054;-72
2022/10/01 06:43:26;;;;;;;5.57;2.80;;;;;;;11.14;90.16;100608.00;5112928;28;20397;-71
2022/10/01 06:45:52;;;;;;;4.00;2.75;;;;;;;11.32;88.27;100603.75;5112925;28;20064;-71
2022/10/01 06:48:19;;;;;;;3.97;2.42;;;;;;;11.27;88.13;100605.13;5112892;28;20471;-72
2022/10/01 06:50:47;;;;;;;3.17;2.50;;;;;;;11.38;88.38;100605.91;5094481;28;20038;-73
2022/10/01 06:53:14;;;;;;;4.53;2.38;;;;;;;11.45;88.21;100599.03;5112295;28;20558;-72
2022/10/01 06:55:41;;;;;;;3.38;1.95;;;;;;;11.49;87.92;100604.13;5094402;28;20039;-73
2022/10/01 06:58:11;;;;;;;5.22;2.88;;;;;;;11.56;87.50;100600.75;5112700;28;20043;-73
2022/10/01 07:00:37;;;;;;;4.38;1.92;;;;;;;11.60;86.71;100596.84;5112691;28;20036;-72
2022/10/01 07:03:09;;;;;;;2.33;1.90;;;;;;;11.40;87.68;100589.63;5094095;28;20177;-72
2022/10/01 07:05:34;;;;;;;4.47;2.08;;;;;;;11.37;88.02;100582.66;5094102;28;20035;-73
2022/10/01 07:08:00;;;;;;;3.00;2.00;;;;;;;11.41;88.31;100585.94;5112597;28;20023;-72
2022/10/01 07:10:26;;;;;;;3.33;2.45;;;;;;;11.25;88.24;100591.78;5094320;28;20027;-73
2022/10/01 07:12:52;;;;;;;3.88;2.38;;;;;;;11.15;89.01;100593.56;5094141;28;20031;-73
2022/10/01 07:15:24;;;;;;;5.90;2.75;;;;;;;11.21;89.59;100589.50;5111849;28;20035;-73
2022/10/01 07:17:51;;;;;;;6.88;2.17;;;;;;;11.29;89.43;100578.94;5112417;28;20027;-72
2022/10/01 07:20:20;;;;;;;3.88;2.00;;;;;;;11.19;90.09;100583.38;5094120;28;20405;-74
2022/10/01 07:22:47;;;;;;;3.85;1.80;;;;;;;11.07;89.93;100583.44;5094070;28;20039;-75
2022/10/01 07:25:13;;;;;;;4.22;1.75;;;;;;;11.04;90.66;100589.09;5094060;28;20396;-73
2022/10/01 07:27:39;;;;;;;2.45;1.70;;;;;;;11.10;90.27;100583.22;5094261;28;20035;-74
2022/10/01 07:30:06;;;;;;;3.70;2.15;;;;;;;11.07;91.40;100594.19;5094204;28;20031;-74
2022/10/01 07:32:34;;;;;;;3.55;1.45;;;;;;;11.10;90.96;100571.59;5112249;28;20028;-74
2022/10/01 07:35:00;;;;;;;3.85;1.90;;;;;;;11.12;90.61;100594.69;5112598;28;20034;-74
2022/10/01 07:37:26;;;;;;;3.65;1.60;;;;;;;11.16;90.95;100589.88;5094516;28;20050;-73
2022/10/01 07:39:52;;;;;;;6.93;2.55;;;;;;;11.19;90.59;100586.09;5093892;28;20119;-72
2022/10/01 07:42:19;;;;;;;4.15;1.20;;;;;;;11.15;90.22;100575.59;5112173;28;20546;-73
2022/10/01 07:44:45;;;;;;;2.38;1.45;;;;;;;11.29;89.33;100581.63;5112301;28;20365;-73
2022/10/01 07:47:11;;;;;;;1.90;1.38;;;;;;;11.41;88.81;100577.84;5093593;28;20055;-74
2022/10/01 07:49:36;;;;;;;2.65;1.55;;;;;;;11.67;87.97;100576.47;5116061;28;20475;-75
2022/10/01 07:52:02;;;;;;;3.72;1.50;;;;;;;11.68;87.94;100578.16;5097990;28;20080;-71
2022/10/01 07:54:27;;;;;;;1.83;1.35;;;;;;;11.84;87.41;100566.06;5115771;28;20094;-71
2022/10/01 07:56:54;;;;;;;5.45;1.67;;;;;;;12.22;86.24;100571.59;5116379;28;20143;-72
2022/10/01 07:59:25;;;;;;;2.20;0.98;;;;;;;12.80;82.75;100568.13;5115531;28;20034;-73
2022/10/01 08:01:52;;;;;;;2.28;1.40;;;;;;;13.06;81.31;100571.94;5098098;28;20122;-71
2022/10/01 08:07:04;;;;;;;0.95;0.77;;;;;;;13.13;81.08;100562.28;5115634;28;20035;-73
2022/10/01 08:09:30;;;;;;;3.15;1.40;;;;;;;12.97;80.52;100561.19;5116459;28;20408;-72
2022/10/01 08:11:56;;;;;;;2.05;1.00;;;;;;;12.62;81.69;100568.00;5097609;28;20023;-73
2022/10/01 08:14:21;;;;;;;2.17;1.00;;;;;;;12.38;83.02;100562.13;5097507;28;20032;-74
2022/10/01 08:16:47;;;;;;;2.08;1.15;;;;;;;12.21;83.31;100559.09;5097284;28;20404;-73
2022/10/01 08:19:14;;;;;;;1.73;1.10;;;;;;;12.10;84.01;100561.94;5097124;28;20031;-73
2022/10/01 08:21:40;;;;;;;1.70;1.20;;;;;;;12.00;84.48;100559.19;5115635;28;20019;-73
2022/10/01 08:24:06;;;;;;;1.65;1.35;;;;;;;12.16;84.16;100565.91;5115318;28;20038;-73
2022/10/01 08:26:32;;;;;;;2.20;1.10;;;;;;;12.08;84.85;100560.34;5097550;28;20434;-73
2022/10/01 08:28:58;;;;;;;1.77;1.02;;;;;;;12.41;83.06;100557.28;5115046;28;20387;-75
2022/10/01 08:31:24;;;;;;;2.60;1.50;;;;;;;12.37;83.63;100557.72;5097245;28;20023;-72
2022/10/01 08:33:51;;;;;;;0.80;0.80;;;;;;;12.49;82.20;100551.22;5115747;28;20034;-73
2022/10/01 08:36:17;;;;;;;1.98;1.20;;;;;;;12.18;83.86;100554.00;5096987;28;20476;-73
2022/10/01 08:38:46;;;;;;;1.52;1.17;;;;;;;12.01;83.73;100552.81;5115833;28;20036;-73
2022/10/01 08:41:32;;;;;;;3.58;1.20;;;;;;;12.14;84.07;100552.56;5096575;28;20321;-74
2022/10/01 08:44:00;;;;;;;3.15;1.38;;;;;;;12.90;80.02;100540.13;5097017;28;20029;-72
2022/10/01 08:46:33;;;;;;;1.90;1.10;;;;;;;13.12;78.19;100532.75;5096967;28;20373;-73
2022/10/01 08:49:16;;;;;;;1.75;0.70;;;;;;;12.44;79.04;100545.41;5114855;28;20479;-72
2022/10/01 08:51:54;;;;;;;2.17;1.10;;;;;;;12.21;80.08;100548.31;5096520;28;20027;-73
2022/10/01 08:54:44;;;;;;;3.88;1.50;;;;;;;12.03;80.75;100544.59;5114611;28;20047;-73
2022/10/01 08:57:17;;;;;;;2.10;1.40;;;;;;;12.11;80.48;100547.47;5096573;28;20059;-73
2022/10/01 08:59:47;;;;;;;1.45;0.98;;;;;;;12.26;79.83;100540.69;5113699;28;20396;-73
2022/10/01 09:02:26;;;;;;;2.60;1.13;;;;;;;12.76;78.43;100543.25;5114715;28;20031;-73
2022/10/01 09:04:58;;;;;;;1.52;0.80;;;;;;;13.88;75.64;100535.38;5114988;28;20028;-72
2022/10/01 09:07:26;;;;;;;2.03;1.15;;;;;;;14.48;72.77;100533.91;5096517;28;20559;-71
2022/10/01 09:10:28;;;;;;;1.70;1.15;;;;;;;14.85;70.90;100535.63;5114852;28;20067;-70
2022/10/01 09:13:12;;;;;;;2.83;1.35;;;;;;;15.10;70.32;100526.66;5114880;28;20028;-70
2022/10/01 09:15:56;;;;;;;3.15;1.40;;;;;;;14.96;70.42;100527.25;5096203;28;20027;-71
2022/10/01 09:18:25;;;;;;;2.10;1.48;;;;;;;15.05;71.23;100531.72;5114506;28;20031;-70
2022/10/01 09:20:54;;;;;;;1.90;1.30;;;;;;;15.51;69.99;100537.81;5095878;28;20042;-68
2022/10/01 09:23:28;;;;;;;4.63;1.50;;;;;;;13.77;74.68;100541.81;5095933;28;20035;-68
2022/10/01 09:25:56;;;;;;;1.20;1.10;;;;;;;13.35;78.28;100538.69;5095816;28;20031;-67
2022/10/01 09:28:26;;;;;;;4.00;1.52;;;;;;;14.16;75.13;100539.78;5114245;28;20047;-67
2022/10/01 09:31:13;;;;;;;2.78;1.63;;;;;;;13.80;75.82;100530.72;5095633;28;20111;-70
2022/10/01 09:33:49;;;;;;;4.00;1.52;;;;;;;13.48;77.44;100539.22;5096253;28;20381;-71
2022/10/01 09:36:43;;;;;;;3.60;1.88;;;;;;;13.15;78.65;100533.31;5100062;28;20028;-70
2022/10/01 09:39:27;;;;;;;1.90;1.73;;;;;;;12.89;80.51;100516.84;5100267;28;20453;-69
2022/10/01 09:41:53;;;;;;;2.47;1.77;;;;;;;12.98;80.41;100525.09;5095222;28;20491;-71
2022/10/01 09:44:29;;;;;;;5.82;2.22;;;;;;;12.87;80.74;100524.25;5113904;28;20031;-71
2022/10/01 09:46:54;;;;;;;3.00;1.75;;;;;;;12.89;81.53;100524.94;5114024;28;20039;-70
2022/10/01 09:49:33;;;;;;;3.22;2.38;;;;;;;13.03;80.89;100517.41;5113748;28;20396;-70
2022/10/01 09:52:33;;;;;;;4.72;1.95;;;;;;;13.13;80.88;100523.66;5114037;28;20035;-71
2022/10/01 09:55:10;;;;;;;4.75;2.40;;;;;;;13.20;80.71;100516.69;5113213;28;20131;-71
2022/10/01 09:57:42;;;;;;;3.72;2.00;;;;;;;13.31;80.15;100524.63;5113127;28;20031;-71
2022/10/01 10:00:20;;;;;;;2.70;2.15;;;;;;;13.22;81.14;100533.59;5113516;28;20038;-71
2022/10/01 10:02:48;;;;;;;3.25;2.38;;;;;;;13.11;81.63;100536.44;5114071;28;20726;-70
2022/10/01 10:05:19;;;;;;;5.63;2.85;;;;;;;12.97;82.91;100544.97;5095540;28;20031;-70
2022/10/01 10:07:48;;;;;;;6.13;2.83;;;;;;;12.69;85.66;100549.38;5113823;28;20057;-69
2022/10/01 10:10:18;;;;;;;6.57;3.47;;;;;;;12.54;87.31;100551.63;5112975;28;20036;-70
2022/10/01 10:12:45;;;;;;;4.93;4.18;;;;;;;12.41;88.60;100556.44;5112897;28;20045;-70
2022/10/01 10:15:21;;;;;;;3.33;2.70;;;;;;;11.94;90.52;100550.81;5113390;28;20024;-68
2022/10/01 10:17:50;;;;;;;8.73;3.40;;;;;;;11.81;92.07;100539.41;5094876;28;20112;-69
2022/10/01 10:20:31;;;;;;;5.45;3.45;;;;;;;11.62;94.13;100535.63;5094192;28;20033;-68
2022/10/01 10:23:06;;;;;;;11.30;3.35;;;;;;;11.79;96.26;100522.53;5112481;28;20473;-69
2022/10/01 10:25:32;;;;;;;;;;;;;;;11.99;97.02;100532.38;5094863;28;20497;-70
2022/10/01 10:28:01;;;;;;;2.63;2.35;;;;;;;12.10;96.41;100524.19;5112556;28;20339;-68
2022/10/01 10:30:28;;;;;;;4.30;2.30;;;;;;;12.09;96.55;100517.06;5094595;28;20100;-69
2022/10/01 10:33:03;;;;;;;3.80;2.10;;;;;;;11.86;95.59;100518.31;5112692;28;20055;-69
2022/10/01 10:35:30;;;;;;;4.65;2.25;;;;;;;11.81;95.87;100512.47;5112929;28;20020;-68
2022/10/01 10:37:57;;;;;;;2.25;1.77;;;;;;;11.87;95.90;100520.00;5112380;28;20038;-67
2022/10/01 10:40:26;;;;;;;4.40;2.72;;;;;;;11.82;96.13;100514.19;5112256;28;20038;-69
2022/10/01 10:42:57;;;;;;;3.05;1.90;;;;;;;11.95;94.81;100501.34;5112534;28;20031;-70
2022/10/01 10:45:32;;;;;;;2.95;2.08;;;;;;;12.68;91.28;100499.97;5111890;28;20446;-69
2022/10/01 10:47:59;;;;;;;3.53;2.17;;;;;;;13.14;89.25;100498.38;5094293;28;20096;-70
2022/10/01 10:50:31;;;;;;;2.08;1.83;;;;;;;13.03;84.06;100496.66;5112229;28;20035;-70
2022/10/01 10:52:58;;;;;;;2.20;1.67;;;;;;;12.94;85.45;100493.00;5093953;28;20131;-70
2022/10/01 10:55:29;;;;;;;2.97;1.80;;;;;;;12.69;86.88;100482.81;5111940;28;20484;-71
2022/10/01 10:58:18;;;;;;;2.40;2.20;;;;;;;12.59;89.05;100482.78;5112194;28;20100;-71
2022/10/01 11:00:49;;;;;;;2.65;2.25;;;;;;;12.58;85.20;100481.09;5112244;28;20032;-71
2022/10/01 11:03:19;;;;;;;2.35;1.80;;;;;;;12.56;86.15;100479.53;5112132;28;20076;-71
2022/10/01 11:05:50;;;;;;;5.32;2.45;;;;;;;12.64;84.11;100469.75;5093713;28;20034;-70
2022/10/01 11:08:22;;;;;;;3.53;2.45;;;;;;;12.82;85.29;100477.13;5094022;28;20031;-71
2022/10/01 11:11:09;;;;;;;4.50;2.20;;;;;;;12.77;83.85;100469.47;5112182;28;20051;-71
2022/10/01 11:14:21;;;;;;;3.90;2.30;;;;;;;12.50;87.12;100472.03;5093789;28;20059;-71
2022/10/01 11:17:17;;;;;;;3.10;2.30;;;;;;;12.39;84.23;100474.84;4992844;28;20044;-70
2022/10/01 11:20:16;;;;;;;3.22;2.75;;;;;;;12.40;85.95;100471.16;4993278;28;20056;-71
2022/10/01 11:23:32;;;;;;;5.03;2.60;;;;;;;12.46;84.77;100465.22;5084190;28;20031;-71
2022/10/01 11:26:09;;;;;;;5.65;2.78;;;;;;;12.76;86.79;100466.88;5073466;28;20047;-70
2022/10/01 11:28:37;;;;;;;5.32;3.20;;;;;;;12.84;85.20;100458.94;5112420;28;20119;-71
2022/10/01 11:31:25;;;;;;;4.03;3.10;;;;;;;13.17;86.08;100466.53;5093719;28;20061;-71
2022/10/01 11:34:15;;;;;;;5.47;3.10;;;;;;;13.47;84.65;100457.38;5093798;28;20031;-72
2022/10/01 11:37:27;;;;;;;5.60;2.72;;;;;;;13.74;82.61;100458.34;5093822;28;20032;-70
2022/10/01 11:39:58;;;;;;;5.85;3.40;;;;;;;13.89;84.01;100437.94;5066194;28;20507;-71
2022/10/01 11:42:33;;;;;;;7.38;3.78;;;;;;;13.53;85.04;100440.56;5111851;28;20046;-73
2022/10/01 11:45:14;;;;;;;6.85;3.20;;;;;;;13.54;84.45;100436.84;5111833;28;20074;-71
2022/10/01 11:48:11;;;;;;;4.88;2.70;;;;;;;13.59;82.13;100432.84;5093965;28;20028;-72
2022/10/01 11:50:43;;;;;;;2.63;2.10;;;;;;;13.67;80.75;100432.97;5107733;28;20051;-71